sensor_id;sensor_type;location;lat;lon;timestamp;temperature;humidity
23597;DHT22;40226;50.874;4.394;2024-01-16T00:01:07;1.80;54.70
23597;DHT22;40226;50.874;4.394;2024-01-16T00:03:33;1.80;44.70
23597;DHT22;40226;50.874;4.394;2024-01-16T00:05:58;1.80;33.20
23597;DHT22;40226;50.874;4.394;2024-01-16T00:08:24;1.90;36.50
23597;DHT22;40226;50.874;4.394;2024-01-16T00:10:50;1.90;29.70
23597;DHT22;40226;50.874;4.394;2024-01-16T00:13:16;1.90;12.70
23597;DHT22;40226;50.874;4.394;2024-01-16T00:15:42;1.80;16.00
23597;DHT22;40226;50.874;4.394;2024-01-16T00:18:08;1.70;30.20
23597;DHT22;40226;50.874;4.394;2024-01-16T00:20:34;1.70;28.50
23597;DHT22;40226;50.874;4.394;2024-01-16T00:23:00;1.60;39.30
23597;DHT22;40226;50.874;4.394;2024-01-16T00:25:25;1.60;59.70
23597;DHT22;40226;50.874;4.394;2024-01-16T00:27:51;1.60;62.70
23597;DHT22;40226;50.874;4.394;2024-01-16T00:30:17;1.50;63.50
23597;DHT22;40226;50.874;4.394;2024-01-16T00:32:43;1.50;70.30
23597;DHT22;40226;50.874;4.394;2024-01-16T00:35:08;1.50;81.30
23597;DHT22;40226;50.874;4.394;2024-01-16T00:37:36;1.50;57.40
23597;DHT22;40226;50.874;4.394;2024-01-16T00:40:03;1.50;50.30
23597;DHT22;40226;50.874;4.394;2024-01-16T00:42:30;1.50;50.40
23597;DHT22;40226;50.874;4.394;2024-01-16T00:44:57;1.40;53.70
23597;DHT22;40226;50.874;4.394;2024-01-16T00:47:22;1.40;60.70
23597;DHT22;40226;50.874;4.394;2024-01-16T00:49:48;1.40;65.40
23597;DHT22;40226;50.874;4.394;2024-01-16T00:52:13;1.50;58.60
23597;DHT22;40226;50.874;4.394;2024-01-16T00:54:39;1.50;40.00
23597;DHT22;40226;50.874;4.394;2024-01-16T00:57:05;1.40;51.40
23597;DHT22;40226;50.874;4.394;2024-01-16T00:59:31;1.30;51.80
23597;DHT22;40226;50.874;4.394;2024-01-16T01:01:57;1.40;52.50
23597;DHT22;40226;50.874;4.394;2024-01-16T01:04:22;1.30;47.80
23597;DHT22;40226;50.874;4.394;2024-01-16T01:06:48;1.50;32.10
23597;DHT22;40226;50.874;4.394;2024-01-16T01:09:13;1.50;13.80
23597;DHT22;40226;50.874;4.394;2024-01-16T01:11:39;1.50;3.20
23597;DHT22;40226;50.874;4.394;2024-01-16T01:14:05;1.40;1.00
23597;DHT22;40226;50.874;4.394;2024-01-16T01:16:31;1.40;1.00
23597;DHT22;40226;50.874;4.394;2024-01-16T01:18:56;1.30;1.00
23597;DHT22;40226;50.874;4.394;2024-01-16T01:21:22;1.30;2.00
23597;DHT22;40226;50.874;4.394;2024-01-16T01:23:48;1.30;3.00
23597;DHT22;40226;50.874;4.394;2024-01-16T01:26:13;1.30;1.00
23597;DHT22;40226;50.874;4.394;2024-01-16T01:28:40;1.20;1.00
23597;DHT22;40226;50.874;4.394;2024-01-16T01:31:08;1.20;2.90
23597;DHT22;40226;50.874;4.394;2024-01-16T01:33:33;1.10;18.20
23597;DHT22;40226;50.874;4.394;2024-01-16T01:35:59;1.10;20.90
23597;DHT22;40226;50.874;4.394;2024-01-16T01:38:25;1.00;15.40
23597;DHT22;40226;50.874;4.394;2024-01-16T01:40:51;0.90;26.60
23597;DHT22;40226;50.874;4.394;2024-01-16T01:43:21;1.00;25.50
23597;DHT22;40226;50.874;4.394;2024-01-16T01:46:15;1.00;15.50
23597;DHT22;40226;50.874;4.394;2024-01-16T01:48:41;1.00;1.00
23597;DHT22;40226;50.874;4.394;2024-01-16T01:51:12;1.00;11.00
23597;DHT22;40226;50.874;4.394;2024-01-16T01:53:39;1.00;9.90
23597;DHT22;40226;50.874;4.394;2024-01-16T01:56:10;1.00;6.20
23597;DHT22;40226;50.874;4.394;2024-01-16T01:58:37;1.00;15.10
23597;DHT22;40226;50.874;4.394;2024-01-16T02:01:04;1.00;1.00
23597;DHT22;40226;50.874;4.394;2024-01-16T02:03:44;1.00;5.10
23597;DHT22;40226;50.874;4.394;2024-01-16T02:06:11;0.80;9.00
23597;DHT22;40226;50.874;4.394;2024-01-16T02:08:37;0.80;14.70
23597;DHT22;40226;50.874;4.394;2024-01-16T02:11:03;0.80;19.70
23597;DHT22;40226;50.874;4.394;2024-01-16T02:13:29;0.90;16.20
23597;DHT22;40226;50.874;4.394;2024-01-16T02:15:55;0.80;5.30
23597;DHT22;40226;50.874;4.394;2024-01-16T02:18:20;0.80;5.90
23597;DHT22;40226;50.874;4.394;2024-01-16T02:20:47;0.80;9.60
23597;DHT22;40226;50.874;4.394;2024-01-16T02:23:14;0.80;14.80
23597;DHT22;40226;50.874;4.394;2024-01-16T02:25:43;0.80;5.20
23597;DHT22;40226;50.874;4.394;2024-01-16T02:28:09;0.80;1.00
23597;DHT22;40226;50.874;4.394;2024-01-16T02:30:35;0.70;1.00
23597;DHT22;40226;50.874;4.394;2024-01-16T02:33:00;0.70;1.00
23597;DHT22;40226;50.874;4.394;2024-01-16T02:35:26;0.80;1.00
23597;DHT22;40226;50.874;4.394;2024-01-16T02:37:52;0.80;1.00
23597;DHT22;40226;50.874;4.394;2024-01-16T02:40:19;0.90;1.00
23597;DHT22;40226;50.874;4.394;2024-01-16T02:42:45;0.80;1.00
23597;DHT22;40226;50.874;4.394;2024-01-16T02:45:10;0.80;1.00
23597;DHT22;40226;50.874;4.394;2024-01-16T02:47:36;0.80;1.00
23597;DHT22;40226;50.874;4.394;2024-01-16T02:50:02;0.70;1.00
23597;DHT22;40226;50.874;4.394;2024-01-16T02:52:28;0.70;1.00
23597;DHT22;40226;50.874;4.394;2024-01-16T02:54:53;0.70;1.00
23597;DHT22;40226;50.874;4.394;2024-01-16T02:57:19;0.70;1.00
23597;DHT22;40226;50.874;4.394;2024-01-16T02:59:46;0.70;1.00
23597;DHT22;40226;50.874;4.394;2024-01-16T03:02:12;0.60;1.00
23597;DHT22;40226;50.874;4.394;2024-01-16T03:04:38;0.60;1.00
23597;DHT22;40226;50.874;4.394;2024-01-16T03:07:04;0.60;1.00
23597;DHT22;40226;50.874;4.394;2024-01-16T03:09:30;0.60;1.10
23597;DHT22;40226;50.874;4.394;2024-01-16T03:11:56;0.60;1.00
23597;DHT22;40226;50.874;4.394;2024-01-16T03:14:23;0.60;1.00
23597;DHT22;40226;50.874;4.394;2024-01-16T03:16:49;0.60;1.00
23597;DHT22;40226;50.874;4.394;2024-01-16T03:19:15;0.70;1.00
23597;DHT22;40226;50.874;4.394;2024-01-16T03:21:42;0.70;1.00
23597;DHT22;40226;50.874;4.394;2024-01-16T03:24:08;0.70;99.90
23597;DHT22;40226;50.874;4.394;2024-01-16T03:26:36;0.70;1.00
23597;DHT22;40226;50.874;4.394;2024-01-16T03:29:02;0.60;1.00
23597;DHT22;40226;50.874;4.394;2024-01-16T03:31:28;0.60;1.00
23597;DHT22;40226;50.874;4.394;2024-01-16T03:33:54;0.60;1.00
23597;DHT22;40226;50.874;4.394;2024-01-16T03:36:19;0.70;1.00
23597;DHT22;40226;50.874;4.394;2024-01-16T03:38:45;0.70;99.90
23597;DHT22;40226;50.874;4.394;2024-01-16T03:41:11;0.70;1.00
23597;DHT22;40226;50.874;4.394;2024-01-16T03:43:37;0.60;99.90
23597;DHT22;40226;50.874;4.394;2024-01-16T03:46:03;0.70;1.00
23597;DHT22;40226;50.874;4.394;2024-01-16T03:48:28;0.60;1.00
23597;DHT22;40226;50.874;4.394;2024-01-16T03:50:55;0.60;1.00
23597;DHT22;40226;50.874;4.394;2024-01-16T03:53:21;0.70;99.90
23597;DHT22;40226;50.874;4.394;2024-01-16T03:55:47;0.60;99.90
23597;DHT22;40226;50.874;4.394;2024-01-16T03:58:13;0.60;99.90
23597;DHT22;40226;50.874;4.394;2024-01-16T04:00:39;0.60;99.90
23597;DHT22;40226;50.874;4.394;2024-01-16T04:03:05;0.50;99.90
23597;DHT22;40226;50.874;4.394;2024-01-16T04:05:31;0.50;1.00
23597;DHT22;40226;50.874;4.394;2024-01-16T04:07:59;0.40;1.00
23597;DHT22;40226;50.874;4.394;2024-01-16T04:10:25;0.40;1.00
23597;DHT22;40226;50.874;4.394;2024-01-16T04:12:50;0.40;1.00
23597;DHT22;40226;50.874;4.394;2024-01-16T04:15:16;0.50;1.00
23597;DHT22;40226;50.874;4.394;2024-01-16T04:17:42;0.40;1.00
23597;DHT22;40226;50.874;4.394;2024-01-16T04:20:09;0.40;1.00
23597;DHT22;40226;50.874;4.394;2024-01-16T04:22:35;0.40;1.00
23597;DHT22;40226;50.874;4.394;2024-01-16T04:25:01;0.50;1.00
23597;DHT22;40226;50.874;4.394;2024-01-16T04:27:27;0.50;99.90
23597;DHT22;40226;50.874;4.394;2024-01-16T04:29:53;0.50;99.90
23597;DHT22;40226;50.874;4.394;2024-01-16T04:32:19;0.30;1.00
23597;DHT22;40226;50.874;4.394;2024-01-16T04:34:44;0.30;1.00
23597;DHT22;40226;50.874;4.394;2024-01-16T04:37:10;0.30;1.00
23597;DHT22;40226;50.874;4.394;2024-01-16T04:39:35;0.20;1.00
23597;DHT22;40226;50.874;4.394;2024-01-16T04:42:01;0.20;1.00
23597;DHT22;40226;50.874;4.394;2024-01-16T04:44:26;0.20;1.00
23597;DHT22;40226;50.874;4.394;2024-01-16T04:46:52;0.20;1.00
23597;DHT22;40226;50.874;4.394;2024-01-16T04:49:18;0.20;1.00
23597;DHT22;40226;50.874;4.394;2024-01-16T04:51:44;0.20;1.00
23597;DHT22;40226;50.874;4.394;2024-01-16T04:54:11;0.20;1.00
23597;DHT22;40226;50.874;4.394;2024-01-16T04:56:37;0.20;1.00
23597;DHT22;40226;50.874;4.394;2024-01-16T04:59:03;0.20;1.00
23597;DHT22;40226;50.874;4.394;2024-01-16T05:01:28;0.10;1.00
23597;DHT22;40226;50.874;4.394;2024-01-16T05:03:54;0.10;1.00
23597;DHT22;40226;50.874;4.394;2024-01-16T05:06:20;0.00;1.00
23597;DHT22;40226;50.874;4.394;2024-01-16T05:08:47;0.10;1.00
23597;DHT22;40226;50.874;4.394;2024-01-16T05:11:14;0.10;1.00
23597;DHT22;40226;50.874;4.394;2024-01-16T05:13:39;0.10;1.00
23597;DHT22;40226;50.874;4.394;2024-01-16T05:16:05;0.10;1.00
23597;DHT22;40226;50.874;4.394;2024-01-16T05:18:31;0.10;1.00
23597;DHT22;40226;50.874;4.394;2024-01-16T05:20:58;0.10;1.00
23597;DHT22;40226;50.874;4.394;2024-01-16T05:23:24;0.00;1.00
23597;DHT22;40226;50.874;4.394;2024-01-16T05:25:49;0.00;1.00
23597;DHT22;40226;50.874;4.394;2024-01-16T05:28:15;0.00;1.00
23597;DHT22;40226;50.874;4.394;2024-01-16T05:30:41;0.00;1.00
23597;DHT22;40226;50.874;4.394;2024-01-16T05:33:07;-0.10;1.00
23597;DHT22;40226;50.874;4.394;2024-01-16T05:35:34;0.00;1.00
23597;DHT22;40226;50.874;4.394;2024-01-16T05:37:59;0.00;1.00
23597;DHT22;40226;50.874;4.394;2024-01-16T05:40:25;0.00;1.00
23597;DHT22;40226;50.874;4.394;2024-01-16T05:42:51;0.00;1.00
23597;DHT22;40226;50.874;4.394;2024-01-16T05:45:17;0.00;1.00
23597;DHT22;40226;50.874;4.394;2024-01-16T05:47:44;-0.10;1.00
23597;DHT22;40226;50.874;4.394;2024-01-16T05:50:10;0.00;1.00
23597;DHT22;40226;50.874;4.394;2024-01-16T05:52:36;0.00;1.00
23597;DHT22;40226;50.874;4.394;2024-01-16T05:55:02;-0.10;1.00
23597;DHT22;40226;50.874;4.394;2024-01-16T05:57:29;-0.10;1.00
23597;DHT22;40226;50.874;4.394;2024-01-16T05:59:57;-0.20;1.00
23597;DHT22;40226;50.874;4.394;2024-01-16T06:02:23;-0.20;1.00
23597;DHT22;40226;50.874;4.394;2024-01-16T06:04:48;-0.20;1.00
23597;DHT22;40226;50.874;4.394;2024-01-16T06:07:14;-0.30;1.00
23597;DHT22;40226;50.874;4.394;2024-01-16T06:09:39;-0.30;1.00
23597;DHT22;40226;50.874;4.394;2024-01-16T06:12:06;-0.30;1.00
23597;DHT22;40226;50.874;4.394;2024-01-16T06:14:32;-0.10;1.00
23597;DHT22;40226;50.874;4.394;2024-01-16T06:16:58;0.00;1.00
23597;DHT22;40226;50.874;4.394;2024-01-16T06:19:24;0.00;99.20
23597;DHT22;40226;50.874;4.394;2024-01-16T06:21:50;0.00;99.90
23597;DHT22;40226;50.874;4.394;2024-01-16T06:24:15;0.10;99.90
23597;DHT22;40226;50.874;4.394;2024-01-16T06:26:41;0.00;99.90
23597;DHT22;40226;50.874;4.394;2024-01-16T06:29:08;0.10;99.90
23597;DHT22;40226;50.874;4.394;2024-01-16T06:31:33;0.00;99.90
23597;DHT22;40226;50.874;4.394;2024-01-16T06:33:59;0.00;99.90
23597;DHT22;40226;50.874;4.394;2024-01-16T06:36:24;0.00;99.90
23597;DHT22;40226;50.874;4.394;2024-01-16T06:38:50;0.00;99.90
23597;DHT22;40226;50.874;4.394;2024-01-16T06:41:15;0.00;99.90
23597;DHT22;40226;50.874;4.394;2024-01-16T06:43:41;0.10;99.90
23597;DHT22;40226;50.874;4.394;2024-01-16T06:46:07;0.20;99.90
23597;DHT22;40226;50.874;4.394;2024-01-16T06:48:35;0.00;99.90
23597;DHT22;40226;50.874;4.394;2024-01-16T06:51:05;0.00;99.90
23597;DHT22;40226;50.874;4.394;2024-01-16T06:53:31;0.00;99.90
23597;DHT22;40226;50.874;4.394;2024-01-16T06:55:56;0.00;99.90
23597;DHT22;40226;50.874;4.394;2024-01-16T06:58:22;-0.10;99.90
23597;DHT22;40226;50.874;4.394;2024-01-16T07:00:48;-0.10;99.90
23597;DHT22;40226;50.874;4.394;2024-01-16T07:03:13;-0.10;99.90
23597;DHT22;40226;50.874;4.394;2024-01-16T07:05:42;-0.10;99.90
23597;DHT22;40226;50.874;4.394;2024-01-16T07:08:08;-0.10;99.90
23597;DHT22;40226;50.874;4.394;2024-01-16T07:10:34;-0.20;99.90
23597;DHT22;40226;50.874;4.394;2024-01-16T07:13:01;-0.20;99.90
23597;DHT22;40226;50.874;4.394;2024-01-16T07:15:27;-0.10;99.90
23597;DHT22;40226;50.874;4.394;2024-01-16T07:17:52;-0.10;99.90
23597;DHT22;40226;50.874;4.394;2024-01-16T07:20:18;-0.10;99.90
23597;DHT22;40226;50.874;4.394;2024-01-16T07:22:43;-0.20;99.90
23597;DHT22;40226;50.874;4.394;2024-01-16T07:25:09;-0.10;99.90
23597;DHT22;40226;50.874;4.394;2024-01-16T07:27:35;-0.20;99.90
23597;DHT22;40226;50.874;4.394;2024-01-16T07:30:01;-0.20;99.90
23597;DHT22;40226;50.874;4.394;2024-01-16T07:32:29;-0.20;1.00
23597;DHT22;40226;50.874;4.394;2024-01-16T07:34:55;-0.10;99.90
23597;DHT22;40226;50.874;4.394;2024-01-16T07:37:20;0.00;99.90
23597;DHT22;40226;50.874;4.394;2024-01-16T07:39:46;-0.10;99.90
23597;DHT22;40226;50.874;4.394;2024-01-16T07:42:12;-0.10;99.90
23597;DHT22;40226;50.874;4.394;2024-01-16T07:44:37;0.00;99.90
23597;DHT22;40226;50.874;4.394;2024-01-16T07:47:03;-0.10;99.90
23597;DHT22;40226;50.874;4.394;2024-01-16T07:49:29;-0.10;99.90
23597;DHT22;40226;50.874;4.394;2024-01-16T07:51:55;0.00;99.90
23597;DHT22;40226;50.874;4.394;2024-01-16T07:54:21;-0.10;99.90
23597;DHT22;40226;50.874;4.394;2024-01-16T07:56:46;0.10;99.90
23597;DHT22;40226;50.874;4.394;2024-01-16T07:59:12;0.00;99.90
23597;DHT22;40226;50.874;4.394;2024-01-16T08:01:38;-0.20;99.90
23597;DHT22;40226;50.874;4.394;2024-01-16T08:04:03;-0.20;99.90
23597;DHT22;40226;50.874;4.394;2024-01-16T08:06:29;-0.20;99.90
23597;DHT22;40226;50.874;4.394;2024-01-16T08:08:55;-0.10;99.90
23597;DHT22;40226;50.874;4.394;2024-01-16T08:11:20;-0.10;99.90
23597;DHT22;40226;50.874;4.394;2024-01-16T08:13:47;-0.10;99.90
23597;DHT22;40226;50.874;4.394;2024-01-16T08:16:12;0.00;99.90
23597;DHT22;40226;50.874;4.394;2024-01-16T08:18:38;0.00;99.90
23597;DHT22;40226;50.874;4.394;2024-01-16T08:21:03;0.00;99.90
23597;DHT22;40226;50.874;4.394;2024-01-16T08:23:29;0.00;99.90
23597;DHT22;40226;50.874;4.394;2024-01-16T08:25:54;0.00;99.90
23597;DHT22;40226;50.874;4.394;2024-01-16T08:28:20;0.10;99.90
23597;DHT22;40226;50.874;4.394;2024-01-16T08:30:46;0.00;99.90
23597;DHT22;40226;50.874;4.394;2024-01-16T08:33:12;0.10;99.90
23597;DHT22;40226;50.874;4.394;2024-01-16T08:35:38;0.10;99.90
23597;DHT22;40226;50.874;4.394;2024-01-16T08:38:04;0.20;99.90
23597;DHT22;40226;50.874;4.394;2024-01-16T08:40:30;0.10;99.90
23597;DHT22;40226;50.874;4.394;2024-01-16T08:42:56;0.20;99.90
23597;DHT22;40226;50.874;4.394;2024-01-16T08:45:21;0.30;99.90
23597;DHT22;40226;50.874;4.394;2024-01-16T08:47:47;0.20;99.90
23597;DHT22;40226;50.874;4.394;2024-01-16T08:50:13;0.30;99.90
23597;DHT22;40226;50.874;4.394;2024-01-16T08:52:38;0.40;99.90
23597;DHT22;40226;50.874;4.394;2024-01-16T08:55:04;0.40;99.90
23597;DHT22;40226;50.874;4.394;2024-01-16T08:57:30;0.30;99.90
23597;DHT22;40226;50.874;4.394;2024-01-16T08:59:55;0.50;99.90
23597;DHT22;40226;50.874;4.394;2024-01-16T09:02:21;0.80;99.90
23597;DHT22;40226;50.874;4.394;2024-01-16T09:04:47;0.80;99.90
23597;DHT22;40226;50.874;4.394;2024-01-16T09:07:18;0.80;99.90
23597;DHT22;40226;50.874;4.394;2024-01-16T09:09:44;0.80;99.90
23597;DHT22;40226;50.874;4.394;2024-01-16T09:12:10;0.60;99.90
23597;DHT22;40226;50.874;4.394;2024-01-16T09:14:35;1.00;99.90
23597;DHT22;40226;50.874;4.394;2024-01-16T09:17:01;0.90;99.90
23597;DHT22;40226;50.874;4.394;2024-01-16T09:19:28;0.80;99.90
23597;DHT22;40226;50.874;4.394;2024-01-16T09:21:55;0.60;99.90
23597;DHT22;40226;50.874;4.394;2024-01-16T09:24:20;0.50;99.90
23597;DHT22;40226;50.874;4.394;2024-01-16T09:26:46;0.50;99.90
23597;DHT22;40226;50.874;4.394;2024-01-16T09:29:12;0.60;99.90
23597;DHT22;40226;50.874;4.394;2024-01-16T09:31:37;0.60;99.90
23597;DHT22;40226;50.874;4.394;2024-01-16T09:34:04;0.60;99.90
23597;DHT22;40226;50.874;4.394;2024-01-16T09:36:30;0.50;99.90
23597;DHT22;40226;50.874;4.394;2024-01-16T09:38:55;0.50;99.90
23597;DHT22;40226;50.874;4.394;2024-01-16T09:41:21;0.40;99.90
23597;DHT22;40226;50.874;4.394;2024-01-16T09:43:47;0.40;99.90
23597;DHT22;40226;50.874;4.394;2024-01-16T09:46:15;0.60;99.90
23597;DHT22;40226;50.874;4.394;2024-01-16T09:48:44;0.80;99.90
23597;DHT22;40226;50.874;4.394;2024-01-16T09:51:11;0.80;99.90
23597;DHT22;40226;50.874;4.394;2024-01-16T09:53:41;0.70;99.90
23597;DHT22;40226;50.874;4.394;2024-01-16T09:56:15;0.70;99.90
23597;DHT22;40226;50.874;4.394;2024-01-16T09:58:43;0.80;99.90
23597;DHT22;40226;50.874;4.394;2024-01-16T10:01:09;0.90;99.90
23597;DHT22;40226;50.874;4.394;2024-01-16T10:03:35;0.80;99.90
23597;DHT22;40226;50.874;4.394;2024-01-16T10:06:04;0.80;99.90
23597;DHT22;40226;50.874;4.394;2024-01-16T10:08:31;0.70;99.90
23597;DHT22;40226;50.874;4.394;2024-01-16T10:10:58;0.70;99.90
23597;DHT22;40226;50.874;4.394;2024-01-16T10:13:23;0.90;99.90
23597;DHT22;40226;50.874;4.394;2024-01-16T10:15:50;1.00;99.90
23597;DHT22;40226;50.874;4.394;2024-01-16T10:18:25;1.00;99.90
23597;DHT22;40226;50.874;4.394;2024-01-16T10:20:52;1.10;99.90
23597;DHT22;40226;50.874;4.394;2024-01-16T10:23:31;1.20;99.90
23597;DHT22;40226;50.874;4.394;2024-01-16T10:28:32;1.50;99.90
23597;DHT22;40226;50.874;4.394;2024-01-16T10:31:03;1.70;99.90
23597;DHT22;40226;50.874;4.394;2024-01-16T10:33:29;1.70;99.90
23597;DHT22;40226;50.874;4.394;2024-01-16T10:36:14;1.70;99.90
23597;DHT22;40226;50.874;4.394;2024-01-16T10:38:43;1.80;99.90
23597;DHT22;40226;50.874;4.394;2024-01-16T10:41:16;1.80;99.90
23597;DHT22;40226;50.874;4.394;2024-01-16T10:43:42;1.90;99.90
23597;DHT22;40226;50.874;4.394;2024-01-16T10:48:36;2.40;99.90
23597;DHT22;40226;50.874;4.394;2024-01-16T10:51:02;2.60;99.90
23597;DHT22;40226;50.874;4.394;2024-01-16T10:53:32;2.80;99.90
23597;DHT22;40226;50.874;4.394;2024-01-16T10:56:00;2.60;99.90
23597;DHT22;40226;50.874;4.394;2024-01-16T10:58:26;2.60;99.90
23597;DHT22;40226;50.874;4.394;2024-01-16T11:00:54;2.80;99.90
23597;DHT22;40226;50.874;4.394;2024-01-16T11:03:29;3.20;99.90
23597;DHT22;40226;50.874;4.394;2024-01-16T11:06:00;3.40;99.90
23597;DHT22;40226;50.874;4.394;2024-01-16T11:08:27;3.00;99.90
23597;DHT22;40226;50.874;4.394;2024-01-16T11:10:57;2.80;99.90
23597;DHT22;40226;50.874;4.394;2024-01-16T11:13:24;2.60;99.90
23597;DHT22;40226;50.874;4.394;2024-01-16T11:15:50;2.80;99.90
23597;DHT22;40226;50.874;4.394;2024-01-16T11:18:16;3.00;99.90
23597;DHT22;40226;50.874;4.394;2024-01-16T11:20:43;3.00;99.90
23597;DHT22;40226;50.874;4.394;2024-01-16T11:23:11;3.00;99.90
23597;DHT22;40226;50.874;4.394;2024-01-16T11:25:37;3.00;99.90
23597;DHT22;40226;50.874;4.394;2024-01-16T11:28:09;3.40;99.90
23597;DHT22;40226;50.874;4.394;2024-01-16T11:30:39;3.70;99.90
23597;DHT22;40226;50.874;4.394;2024-01-16T11:33:04;3.70;99.90
23597;DHT22;40226;50.874;4.394;2024-01-16T11:35:34;3.30;99.90
23597;DHT22;40226;50.874;4.394;2024-01-16T11:38:18;3.50;99.90
23597;DHT22;40226;50.874;4.394;2024-01-16T11:40:46;3.50;99.90
23597;DHT22;40226;50.874;4.394;2024-01-16T11:45:57;3.20;99.90
23597;DHT22;40226;50.874;4.394;2024-01-16T11:48:24;3.20;99.90
23597;DHT22;40226;50.874;4.394;2024-01-16T11:50:50;3.10;99.90
23597;DHT22;40226;50.874;4.394;2024-01-16T11:53:37;3.20;99.90
23597;DHT22;40226;50.874;4.394;2024-01-16T12:01:21;3.30;99.90
23597;DHT22;40226;50.874;4.394;2024-01-16T12:04:01;3.30;99.90
23597;DHT22;40226;50.874;4.394;2024-01-16T12:06:27;3.40;99.90
23597;DHT22;40226;50.874;4.394;2024-01-16T12:08:53;3.60;99.90
23597;DHT22;40226;50.874;4.394;2024-01-16T12:11:19;3.70;99.90
23597;DHT22;40226;50.874;4.394;2024-01-16T12:14:01;3.70;99.90
23597;DHT22;40226;50.874;4.394;2024-01-16T12:16:26;4.00;99.90
23597;DHT22;40226;50.874;4.394;2024-01-16T12:19:04;4.70;99.90
23597;DHT22;40226;50.874;4.394;2024-01-16T12:21:30;4.50;99.90
23597;DHT22;40226;50.874;4.394;2024-01-16T12:23:58;4.80;99.90
23597;DHT22;40226;50.874;4.394;2024-01-16T12:26:24;4.80;99.90
23597;DHT22;40226;50.874;4.394;2024-01-16T12:28:53;4.50;99.90
23597;DHT22;40226;50.874;4.394;2024-01-16T12:31:19;4.20;99.90
23597;DHT22;40226;50.874;4.394;2024-01-16T12:33:45;3.90;99.90
23597;DHT22;40226;50.874;4.394;2024-01-16T12:36:10;4.00;99.90
23597;DHT22;40226;50.874;4.394;2024-01-16T12:38:36;4.20;99.90
23597;DHT22;40226;50.874;4.394;2024-01-16T12:41:06;4.60;99.90
23597;DHT22;40226;50.874;4.394;2024-01-16T12:43:33;4.80;99.90
23597;DHT22;40226;50.874;4.394;2024-01-16T12:45:58;5.10;99.90
23597;DHT22;40226;50.874;4.394;2024-01-16T12:48:25;5.30;99.90
23597;DHT22;40226;50.874;4.394;2024-01-16T12:50:52;5.20;99.90
23597;DHT22;40226;50.874;4.394;2024-01-16T12:53:23;4.70;99.90
23597;DHT22;40226;50.874;4.394;2024-01-16T12:55:57;4.80;99.90
23597;DHT22;40226;50.874;4.394;2024-01-16T12:58:23;4.80;99.90
23597;DHT22;40226;50.874;4.394;2024-01-16T13:00:51;5.00;99.90
23597;DHT22;40226;50.874;4.394;2024-01-16T13:03:20;5.10;99.90
23597;DHT22;40226;50.874;4.394;2024-01-16T13:05:56;4.50;99.90
23597;DHT22;40226;50.874;4.394;2024-01-16T13:08:22;4.50;99.90
23597;DHT22;40226;50.874;4.394;2024-01-16T13:11:10;4.60;99.90
23597;DHT22;40226;50.874;4.394;2024-01-16T13:13:36;4.40;99.90
23597;DHT22;40226;50.874;4.394;2024-01-16T13:16:03;4.60;99.90
23597;DHT22;40226;50.874;4.394;2024-01-16T13:18:32;4.70;99.90
23597;DHT22;40226;50.874;4.394;2024-01-16T13:20:59;5.00;99.90
23597;DHT22;40226;50.874;4.394;2024-01-16T13:23:26;4.60;99.90
23597;DHT22;40226;50.874;4.394;2024-01-16T13:25:52;4.60;99.90
23597;DHT22;40226;50.874;4.394;2024-01-16T13:28:19;4.60;99.90
23597;DHT22;40226;50.874;4.394;2024-01-16T13:30:46;4.20;99.90
23597;DHT22;40226;50.874;4.394;2024-01-16T13:33:13;3.80;99.90
23597;DHT22;40226;50.874;4.394;2024-01-16T13:35:44;3.60;99.90
23597;DHT22;40226;50.874;4.394;2024-01-16T13:38:11;3.40;99.90
23597;DHT22;40226;50.874;4.394;2024-01-16T13:40:37;3.40;99.90
23597;DHT22;40226;50.874;4.394;2024-01-16T13:43:04;3.20;99.90
23597;DHT22;40226;50.874;4.394;2024-01-16T13:45:30;3.00;99.90
23597;DHT22;40226;50.874;4.394;2024-01-16T13:47:57;3.00;99.90
23597;DHT22;40226;50.874;4.394;2024-01-16T13:50:23;3.00;99.90
23597;DHT22;40226;50.874;4.394;2024-01-16T13:52:49;2.90;99.90
23597;DHT22;40226;50.874;4.394;2024-01-16T13:55:15;3.10;99.90
23597;DHT22;40226;50.874;4.394;2024-01-16T13:57:41;3.20;99.90
23597;DHT22;40226;50.874;4.394;2024-01-16T14:00:08;3.10;99.90
23597;DHT22;40226;50.874;4.394;2024-01-16T14:02:39;3.10;99.90
23597;DHT22;40226;50.874;4.394;2024-01-16T14:05:13;3.00;99.90
23597;DHT22;40226;50.874;4.394;2024-01-16T14:07:50;3.00;99.90
23597;DHT22;40226;50.874;4.394;2024-01-16T14:10:19;3.10;99.90
23597;DHT22;40226;50.874;4.394;2024-01-16T14:12:46;3.40;99.90
23597;DHT22;40226;50.874;4.394;2024-01-16T14:15:14;3.30;99.90
23597;DHT22;40226;50.874;4.394;2024-01-16T14:17:45;3.10;99.90
23597;DHT22;40226;50.874;4.394;2024-01-16T14:20:12;3.20;99.90
23597;DHT22;40226;50.874;4.394;2024-01-16T14:22:38;3.30;99.90
23597;DHT22;40226;50.874;4.394;2024-01-16T14:25:06;3.20;99.90
23597;DHT22;40226;50.874;4.394;2024-01-16T14:27:37;3.10;99.90
23597;DHT22;40226;50.874;4.394;2024-01-16T14:30:05;3.10;99.90
23597;DHT22;40226;50.874;4.394;2024-01-16T14:32:32;3.00;99.90
23597;DHT22;40226;50.874;4.394;2024-01-16T14:34:58;3.20;99.90
23597;DHT22;40226;50.874;4.394;2024-01-16T14:37:24;3.20;99.90
23597;DHT22;40226;50.874;4.394;2024-01-16T14:39:49;3.20;99.90
23597;DHT22;40226;50.874;4.394;2024-01-16T14:42:15;3.10;99.90
23597;DHT22;40226;50.874;4.394;2024-01-16T14:44:40;3.00;99.90
23597;DHT22;40226;50.874;4.394;2024-01-16T14:47:06;2.90;99.90
23597;DHT22;40226;50.874;4.394;2024-01-16T14:49:31;2.90;99.90
23597;DHT22;40226;50.874;4.394;2024-01-16T14:51:57;2.80;99.90
23597;DHT22;40226;50.874;4.394;2024-01-16T14:54:24;2.80;99.90
23597;DHT22;40226;50.874;4.394;2024-01-16T14:56:50;3.00;99.90
23597;DHT22;40226;50.874;4.394;2024-01-16T14:59:16;3.10;99.90
23597;DHT22;40226;50.874;4.394;2024-01-16T15:01:41;3.20;99.90
23597;DHT22;40226;50.874;4.394;2024-01-16T15:04:07;3.30;99.90
23597;DHT22;40226;50.874;4.394;2024-01-16T15:06:32;3.60;99.90
23597;DHT22;40226;50.874;4.394;2024-01-16T15:08:59;3.40;99.90
23597;DHT22;40226;50.874;4.394;2024-01-16T15:11:25;3.10;99.90
23597;DHT22;40226;50.874;4.394;2024-01-16T15:13:50;2.90;99.90
23597;DHT22;40226;50.874;4.394;2024-01-16T15:16:16;2.90;99.90
23597;DHT22;40226;50.874;4.394;2024-01-16T15:18:42;2.90;99.90
23597;DHT22;40226;50.874;4.394;2024-01-16T15:21:08;2.90;99.90
23597;DHT22;40226;50.874;4.394;2024-01-16T15:23:34;2.80;99.90
23597;DHT22;40226;50.874;4.394;2024-01-16T15:25:59;2.70;99.90
23597;DHT22;40226;50.874;4.394;2024-01-16T15:28:32;2.60;99.90
23597;DHT22;40226;50.874;4.394;2024-01-16T15:30:58;2.80;99.90
23597;DHT22;40226;50.874;4.394;2024-01-16T15:33:31;2.80;99.90
23597;DHT22;40226;50.874;4.394;2024-01-16T15:35:59;2.60;99.90
23597;DHT22;40226;50.874;4.394;2024-01-16T15:38:26;2.50;99.90
23597;DHT22;40226;50.874;4.394;2024-01-16T15:40:51;2.40;99.90
23597;DHT22;40226;50.874;4.394;2024-01-16T15:43:18;2.40;99.90
23597;DHT22;40226;50.874;4.394;2024-01-16T15:45:44;2.40;99.90
23597;DHT22;40226;50.874;4.394;2024-01-16T15:48:09;2.40;99.90
23597;DHT22;40226;50.874;4.394;2024-01-16T15:50:35;2.30;99.90
23597;DHT22;40226;50.874;4.394;2024-01-16T15:53:01;2.30;99.90
23597;DHT22;40226;50.874;4.394;2024-01-16T15:55:27;2.30;99.90
23597;DHT22;40226;50.874;4.394;2024-01-16T15:57:52;2.30;99.90
23597;DHT22;40226;50.874;4.394;2024-01-16T16:00:19;2.20;99.90